Flight Track Log - Related Links

Times and Time Zones

All times are in EDT time to prevent confusion due to time zone crossing. See the N96GT flight status page for this flight to view local times or setup timezone preferences in your user account.

Time Position Orientation Groundspeed Altitude Reporting Facility
EDT Latitude Longitude Course Direction KTS MPH feet Rate Location/Type
Wed 07:02:00 PM 42.7588 -71.3137 153° Southeast  Level Estimated
Wed 07:03:00 PM 42.7267 -71.3220 191° South  Level FlightAware Approximate
Wed 07:04:00 PM 42.6947 -71.3304 191° South  Level FlightAware Approximate
Wed 07:04:55 PM 42.9167 -71.4333 163° South 93 107 900  Level KA90
Wed 07:05:00 PM 42.6626 -71.3387 191° South  Level FlightAware Approximate
Wed 07:05:13 PM 42.9167 -71.4167 90° East 90 104 1,200  Level KA90
Wed 07:06:00 PM 42.6726 -71.3288 163° South  Level FlightAware Approximate
Wed 07:06:12 PM 42.8908 -71.4150 177° South 83 96 2,200  Level Boston Center
Wed 07:07:00 PM 42.6414 -71.3156 163° South  Level FlightAware Approximate
Wed 07:07:14 PM 42.8706 -71.4025 156° South 82 94 2,700  Level Boston Center
Wed 07:08:00 PM 42.6103 -71.3025 163° South  Level FlightAware Approximate
Wed 07:08:15 PM 42.8544 -71.3822 137° Southeast 79 91 3,200  Level Boston Center
Wed 07:09:00 PM 42.5791 -71.2893 163° South  Level FlightAware Approximate
Wed 07:09:16 PM 42.8353 -71.3600 140° Southeast 84 97 3,800  Level Boston Center
Wed 07:10:00 PM 42.5480 -71.2762 163° South  Level FlightAware Approximate
Wed 07:10:17 PM 42.8169 -71.3358 136° Southeast 92 106 4,000  Level Boston Center
Wed 07:11:19 PM 42.7942 -71.3086 139° Southeast 107 123 4,000  Level Boston Center
Wed 07:12:20 PM 42.7828 -71.2639 109° East 120 138 4,000  Level Boston Center
Wed 07:13:21 PM 42.7742 -71.2203 105° East 121 139 4,000  Level Boston Center
Wed 07:14:22 PM 42.7544 -71.1861 128° Southeast 114 131 4,000  Level Boston Center
Wed 07:15:24 PM 42.7267 -71.1711 158° South 109 125 4,000  Level Boston Center
Wed 07:16:25 PM 42.6953 -71.1558 160° South 111 128 4,000  Level Boston Center
Wed 07:17:26 PM 42.6672 -71.1419 160° South 108 124 4,000  Level Boston Center
Wed 07:18:27 PM 42.6386 -71.1278 160° South 109 125 4,000  Level Boston Center
Wed 07:19:14 PM 42.6167 -71.1167 160° South 106 122 4,000  Level KA90
Wed 07:20:15 PM 42.5833 -71.1000 160° South 106 122 4,000  Level KA90
Wed 07:21:15 PM 42.5667 -71.0833 144° Southeast 105 121 4,000  Level KA90
Wed 07:22:15 PM 42.5333 -71.0667 160° South 104 120 4,000  Level KA90
Wed 07:23:15 PM 42.5000 -71.0667 180° South 103 119 4,000  Level KA90
Wed 07:24:15 PM 42.4833 -71.0500 144° Southeast 101 116 4,000  Level KA90
Wed 07:25:16 PM 42.4500 -71.0333 160° South 104 120 4,000  Level KA90
Wed 07:26:16 PM 42.4333 -71.0167 144° Southeast 103 119 4,000  Level KA90
Wed 07:27:16 PM 42.4000 -71.0000 160° South 103 119 4,000  Level KA90
Wed 07:28:16 PM 42.3833 -70.9833 144° Southeast 110 127 4,000  Level KA90
Wed 07:29:16 PM 42.3500 -70.9500 144° Southeast 110 127 4,000  Level KA90
Wed 07:30:16 PM 42.3333 -70.9167 124° Southeast 110 127 4,000  Level KA90
Wed 07:31:16 PM 42.3167 -70.9000 144° Southeast 109 125 4,000  Level KA90
Wed 07:32:17 PM 42.2833 -70.8667 144° Southeast 104 120 4,000  Level KA90
Wed 07:33:17 PM 42.2667 -70.8500 143° Southeast 105 121 4,000 -150 Level KA90
Wed 07:34:17 PM 42.2333 -70.8500 180° South 111 128 3,700 -333 Descending KA90
Wed 07:34:47 PM 42.2203 -70.8475 172° South 111 128 3,500 -462 Descending Boston Center
Wed 07:35:48 PM 42.1900 -70.8431 174° South 114 131 3,000 -244 Descending Boston Center
Wed 07:36:50 PM 42.1572 -70.8489 188° South 107 123 3,000  Level Boston Center
Wed 07:37:51 PM 42.1311 -70.8608 199° South 101 116 3,000  Level Boston Center
Wed 07:38:12 PM 42.1194 -70.8669 201° Southwest 106 122 3,000  Level Boston Center
Wed 07:38:42 PM 42.1050 -70.8733 198° South 108 124 3,000  Level Boston Center
Wed 07:38:52 PM 42.1044 -70.8767 257° West 105 121 3,000  Level Boston Center
Wed 07:39:43 PM 42.0781 -70.8897 200° South 107 123 3,000  Level Boston Center
Wed 07:39:53 PM 42.0739 -70.8939 217° Southwest 110 127 3,000  Level Boston Center
Wed 07:40:55 PM 42.0478 -70.9114 206° Southwest 106 122 3,000  Level Boston Center
Wed 07:41:44 PM 42.0236 -70.9253 203° Southwest 106 122 3,000  Level Boston Center
Wed 07:41:56 PM 42.0208 -70.9275 211° Southwest 105 121 3,000  Level Boston Center
Wed 07:42:45 PM 41.9967 -70.9417 204° Southwest 104 120 3,000  Level Boston Center
Wed 07:42:57 PM 41.9936 -70.9442 211° Southwest 107 123 3,000  Level Boston Center
Wed 07:43:46 PM 41.9675 -70.9572 200° South 112 129 3,000  Level Boston Center
Wed 07:43:58 PM 41.9633 -70.9614 217° Southwest 109 125 3,000  Level Boston Center
Wed 07:44:40 PM 41.9425 -70.9742 205° Southwest 110 127 3,000  Level Boston Center
Wed 07:44:59 PM 41.9356 -70.9803 213° Southwest 111 128 3,000  Level Boston Center
Wed 07:45:41 PM 41.9156 -70.9906 201° Southwest 111 128 3,000  Level Boston Center
Wed 07:46:00 PM 41.9069 -70.9958 205° Southwest 112 129 3,000  Level Boston Center
Wed 07:46:42 PM 41.8900 -70.9786 143° Southeast 105 121 3,000  Level Boston Center
Wed 07:47:02 PM 41.8831 -70.9714 142° Southeast 109 125 3,000  Level Boston Center
Wed 07:47:42 PM 41.8669 -70.9531 140° Southeast 106 122 3,000  Level Boston Center
Wed 07:48:03 PM 41.8586 -70.9431 138° Southeast 109 125 3,000  Level Boston Center
Wed 07:49:04 PM 41.8378 -70.9194 140° Southeast 100 115 3,000  Level Boston Center
Wed 07:50:05 PM 41.8203 -70.8981 138° Southeast 88 101 3,000  Level Boston Center
Wed 07:51:06 PM 41.8044 -70.8775 136° Southeast 82 94 3,000  Level Boston Center
Wed 07:53:00 PM 41.8423 -70.8237 69° East  Level Estimated
Wed 08:00:00 PM 41.9000 -70.7167 109° East  Level FlightAware Approximate
Wed 08:01:00 PM 41.9090 -70.7288 90° East  Level Estimated
Wed 08:02:00 PM 41.9090 -70.7288 109° East  Level Estimated
Wed 08:03:00 PM 41.9090 -70.7288 135° Southeast  Level Estimated
Wed 08:04:00 PM 41.9090 -70.7288 109° East  Level Estimated
Wed 08:05:00 PM 41.9090 -70.7288 135° Southeast  Level Estimated
Wed 08:06:00 PM 41.9090 -70.7288 109° East  Level Estimated
Wed 08:07:00 PM 41.9090 -70.7288 135° Southeast  Level Estimated
Wed 08:08:00 PM 41.9090 -70.7288 109° East  Level Estimated
Wed 08:09:00 PM 41.9090 -70.7288 135° Southeast  Level Estimated
Wed 08:10:00 PM 41.9090 -70.7288 109° East  Level Estimated

Login

Don't have an account? Register now (free) for customized features, flight alerts, and more!